sensor_id;sensor_type;location;lat;lon;timestamp;temperature;humidity
67901;DHT22;54700;51.796;10.956;2024-03-17T00:02:06;5.40;87.90
67901;DHT22;54700;51.796;10.956;2024-03-17T00:04:32;5.40;88.10
67901;DHT22;54700;51.796;10.956;2024-03-17T00:07:00;5.40;87.20
67901;DHT22;54700;51.796;10.956;2024-03-17T00:09:26;5.40;87.50
67901;DHT22;54700;51.796;10.956;2024-03-17T00:11:54;5.30;87.70
67901;DHT22;54700;51.796;10.956;2024-03-17T00:14:20;5.30;88.40
67901;DHT22;54700;51.796;10.956;2024-03-17T00:16:47;5.30;88.70
67901;DHT22;54700;51.796;10.956;2024-03-17T00:19:13;5.20;89.20
67901;DHT22;54700;51.796;10.956;2024-03-17T00:21:42;5.20;89.50
67901;DHT22;54700;51.796;10.956;2024-03-17T00:24:09;5.10;90.00
67901;DHT22;54700;51.796;10.956;2024-03-17T00:26:38;5.10;90.30
67901;DHT22;54700;51.796;10.956;2024-03-17T00:29:04;5.10;90.20
67901;DHT22;54700;51.796;10.956;2024-03-17T00:31:31;5.20;90.20
67901;DHT22;54700;51.796;10.956;2024-03-17T00:33:57;5.20;90.20
67901;DHT22;54700;51.796;10.956;2024-03-17T00:36:24;5.30;90.00
67901;DHT22;54700;51.796;10.956;2024-03-17T00:38:50;5.30;89.60
67901;DHT22;54700;51.796;10.956;2024-03-17T00:41:22;5.30;89.40
67901;DHT22;54700;51.796;10.956;2024-03-17T00:43:48;5.30;89.90
67901;DHT22;54700;51.796;10.956;2024-03-17T00:46:18;5.30;90.30
67901;DHT22;54700;51.796;10.956;2024-03-17T00:48:46;5.30;90.50
67901;DHT22;54700;51.796;10.956;2024-03-17T00:51:14;5.30;90.40
67901;DHT22;54700;51.796;10.956;2024-03-17T00:53:41;5.20;90.40
67901;DHT22;54700;51.796;10.956;2024-03-17T00:56:08;5.20;90.60
67901;DHT22;54700;51.796;10.956;2024-03-17T00:58:38;5.20;90.70
67901;DHT22;54700;51.796;10.956;2024-03-17T01:01:05;5.20;90.90
67901;DHT22;54700;51.796;10.956;2024-03-17T01:03:34;5.20;90.60
67901;DHT22;54700;51.796;10.956;2024-03-17T01:06:02;5.20;90.60
67901;DHT22;54700;51.796;10.956;2024-03-17T01:08:28;5.20;90.60
67901;DHT22;54700;51.796;10.956;2024-03-17T01:10:55;5.20;90.70
67901;DHT22;54700;51.796;10.956;2024-03-17T01:13:24;5.20;90.80
67901;DHT22;54700;51.796;10.956;2024-03-17T01:15:52;5.20;91.20
67901;DHT22;54700;51.796;10.956;2024-03-17T01:18:18;5.20;91.20
67901;DHT22;54700;51.796;10.956;2024-03-17T01:20:45;5.20;91.10
67901;DHT22;54700;51.796;10.956;2024-03-17T01:23:11;5.30;90.70
67901;DHT22;54700;51.796;10.956;2024-03-17T01:25:39;5.30;90.60
67901;DHT22;54700;51.796;10.956;2024-03-17T01:28:05;5.30;90.80
67901;DHT22;54700;51.796;10.956;2024-03-17T01:30:32;5.30;90.50
67901;DHT22;54700;51.796;10.956;2024-03-17T01:33:00;5.30;90.60
67901;DHT22;54700;51.796;10.956;2024-03-17T01:35:29;5.40;90.30
67901;DHT22;54700;51.796;10.956;2024-03-17T01:37:55;5.40;90.60
67901;DHT22;54700;51.796;10.956;2024-03-17T01:40:22;5.30;90.70
67901;DHT22;54700;51.796;10.956;2024-03-17T01:42:48;5.40;90.70
67901;DHT22;54700;51.796;10.956;2024-03-17T01:45:24;5.40;90.30
67901;DHT22;54700;51.796;10.956;2024-03-17T01:47:52;5.40;90.30
67901;DHT22;54700;51.796;10.956;2024-03-17T01:50:21;5.40;90.40
67901;DHT22;54700;51.796;10.956;2024-03-17T01:52:50;5.40;90.30
67901;DHT22;54700;51.796;10.956;2024-03-17T01:55:19;5.30;90.70
67901;DHT22;54700;51.796;10.956;2024-03-17T01:57:46;5.30;90.70
67901;DHT22;54700;51.796;10.956;2024-03-17T02:00:13;5.20;90.50
67901;DHT22;54700;51.796;10.956;2024-03-17T02:02:39;5.20;90.60
67901;DHT22;54700;51.796;10.956;2024-03-17T02:05:07;5.10;90.60
67901;DHT22;54700;51.796;10.956;2024-03-17T02:07:34;5.10;90.70
67901;DHT22;54700;51.796;10.956;2024-03-17T02:10:01;5.00;90.70
67901;DHT22;54700;51.796;10.956;2024-03-17T02:12:28;5.00;90.90
67901;DHT22;54700;51.796;10.956;2024-03-17T02:14:57;5.00;91.00
67901;DHT22;54700;51.796;10.956;2024-03-17T02:17:23;5.00;91.10
67901;DHT22;54700;51.796;10.956;2024-03-17T02:19:51;5.00;91.00
67901;DHT22;54700;51.796;10.956;2024-03-17T02:22:18;5.00;90.70
67901;DHT22;54700;51.796;10.956;2024-03-17T02:24:45;5.00;90.60
67901;DHT22;54700;51.796;10.956;2024-03-17T02:27:11;5.10;90.40
67901;DHT22;54700;51.796;10.956;2024-03-17T02:29:39;5.10;90.40
67901;DHT22;54700;51.796;10.956;2024-03-17T02:32:05;5.10;90.60
67901;DHT22;54700;51.796;10.956;2024-03-17T02:34:36;5.00;90.50
67901;DHT22;54700;51.796;10.956;2024-03-17T02:37:04;5.00;90.60
67901;DHT22;54700;51.796;10.956;2024-03-17T02:39:34;5.00;91.00
67901;DHT22;54700;51.796;10.956;2024-03-17T02:42:00;5.00;91.30
67901;DHT22;54700;51.796;10.956;2024-03-17T02:44:29;5.00;91.30
67901;DHT22;54700;51.796;10.956;2024-03-17T02:46:56;5.10;91.30
67901;DHT22;54700;51.796;10.956;2024-03-17T02:49:24;5.10;91.00
67901;DHT22;54700;51.796;10.956;2024-03-17T02:51:52;5.10;91.00
67901;DHT22;54700;51.796;10.956;2024-03-17T02:54:19;5.10;91.40
67901;DHT22;54700;51.796;10.956;2024-03-17T02:56:47;5.20;91.40
67901;DHT22;54700;51.796;10.956;2024-03-17T02:59:14;5.20;91.10
67901;DHT22;54700;51.796;10.956;2024-03-17T03:01:42;5.20;91.00
67901;DHT22;54700;51.796;10.956;2024-03-17T03:04:10;5.30;91.10
67901;DHT22;54700;51.796;10.956;2024-03-17T03:06:37;5.30;91.20
67901;DHT22;54700;51.796;10.956;2024-03-17T03:09:04;5.20;91.30
67901;DHT22;54700;51.796;10.956;2024-03-17T03:11:37;5.20;90.90
67901;DHT22;54700;51.796;10.956;2024-03-17T03:14:06;5.20;91.00
67901;DHT22;54700;51.796;10.956;2024-03-17T03:16:33;5.20;91.30
67901;DHT22;54700;51.796;10.956;2024-03-17T03:19:01;5.20;91.20
67901;DHT22;54700;51.796;10.956;2024-03-17T03:21:28;5.20;91.60
67901;DHT22;54700;51.796;10.956;2024-03-17T03:23:55;5.20;91.60
67901;DHT22;54700;51.796;10.956;2024-03-17T03:26:22;5.20;91.80
67901;DHT22;54700;51.796;10.956;2024-03-17T03:28:49;5.20;91.90
67901;DHT22;54700;51.796;10.956;2024-03-17T03:31:18;5.20;91.80
67901;DHT22;54700;51.796;10.956;2024-03-17T03:33:45;5.20;91.90
67901;DHT22;54700;51.796;10.956;2024-03-17T03:36:12;5.30;92.20
67901;DHT22;54700;51.796;10.956;2024-03-17T03:38:42;5.30;92.10
67901;DHT22;54700;51.796;10.956;2024-03-17T03:41:09;5.30;91.80
67901;DHT22;54700;51.796;10.956;2024-03-17T03:43:37;5.30;92.00
67901;DHT22;54700;51.796;10.956;2024-03-17T03:46:04;5.30;92.20
67901;DHT22;54700;51.796;10.956;2024-03-17T03:48:33;5.30;92.40
67901;DHT22;54700;51.796;10.956;2024-03-17T03:51:03;5.30;92.50
67901;DHT22;54700;51.796;10.956;2024-03-17T03:53:31;5.30;92.30
67901;DHT22;54700;51.796;10.956;2024-03-17T03:55:58;5.30;92.30
67901;DHT22;54700;51.796;10.956;2024-03-17T03:58:26;5.30;92.40
67901;DHT22;54700;51.796;10.956;2024-03-17T04:00:54;5.30;92.20
67901;DHT22;54700;51.796;10.956;2024-03-17T04:03:20;5.30;92.20
67901;DHT22;54700;51.796;10.956;2024-03-17T04:05:49;5.40;92.40
67901;DHT22;54700;51.796;10.956;2024-03-17T04:08:18;5.30;92.60
67901;DHT22;54700;51.796;10.956;2024-03-17T04:10:45;5.40;92.50
67901;DHT22;54700;51.796;10.956;2024-03-17T04:13:12;5.40;92.50
67901;DHT22;54700;51.796;10.956;2024-03-17T04:15:39;5.40;92.30
67901;DHT22;54700;51.796;10.956;2024-03-17T04:18:06;5.40;92.40
67901;DHT22;54700;51.796;10.956;2024-03-17T04:20:33;5.40;92.40
67901;DHT22;54700;51.796;10.956;2024-03-17T04:23:01;5.40;92.40
67901;DHT22;54700;51.796;10.956;2024-03-17T04:25:28;5.40;92.20
67901;DHT22;54700;51.796;10.956;2024-03-17T04:27:55;5.40;92.20
67901;DHT22;54700;51.796;10.956;2024-03-17T04:30:23;5.40;91.80
67901;DHT22;54700;51.796;10.956;2024-03-17T04:32:50;5.30;91.70
67901;DHT22;54700;51.796;10.956;2024-03-17T04:35:17;5.20;91.90
67901;DHT22;54700;51.796;10.956;2024-03-17T04:37:44;5.10;92.00
67901;DHT22;54700;51.796;10.956;2024-03-17T04:40:16;5.00;92.20
67901;DHT22;54700;51.796;10.956;2024-03-17T04:42:44;5.00;92.20
67901;DHT22;54700;51.796;10.956;2024-03-17T04:45:11;4.90;92.20
67901;DHT22;54700;51.796;10.956;2024-03-17T04:47:38;4.90;92.40
67901;DHT22;54700;51.796;10.956;2024-03-17T04:50:05;4.80;92.60
67901;DHT22;54700;51.796;10.956;2024-03-17T04:52:32;4.80;92.70
67901;DHT22;54700;51.796;10.956;2024-03-17T04:54:59;4.70;92.80
67901;DHT22;54700;51.796;10.956;2024-03-17T04:57:27;4.60;92.90
67901;DHT22;54700;51.796;10.956;2024-03-17T04:59:54;4.50;93.10
67901;DHT22;54700;51.796;10.956;2024-03-17T05:02:21;4.50;93.40
67901;DHT22;54700;51.796;10.956;2024-03-17T05:04:48;4.50;93.60
67901;DHT22;54700;51.796;10.956;2024-03-17T05:07:15;4.40;93.90
67901;DHT22;54700;51.796;10.956;2024-03-17T05:09:42;4.40;94.00
67901;DHT22;54700;51.796;10.956;2024-03-17T05:12:10;4.30;94.00
67901;DHT22;54700;51.796;10.956;2024-03-17T05:14:39;4.30;94.10
67901;DHT22;54700;51.796;10.956;2024-03-17T05:17:05;4.20;94.10
67901;DHT22;54700;51.796;10.956;2024-03-17T05:19:32;4.20;94.40
67901;DHT22;54700;51.796;10.956;2024-03-17T05:21:59;4.10;94.80
67901;DHT22;54700;51.796;10.956;2024-03-17T05:24:26;4.20;94.80
67901;DHT22;54700;51.796;10.956;2024-03-17T05:26:53;4.10;94.90
67901;DHT22;54700;51.796;10.956;2024-03-17T05:29:19;4.20;94.60
67901;DHT22;54700;51.796;10.956;2024-03-17T05:31:49;4.10;94.80
67901;DHT22;54700;51.796;10.956;2024-03-17T05:34:16;4.10;94.90
67901;DHT22;54700;51.796;10.956;2024-03-17T05:36:43;4.10;94.90
67901;DHT22;54700;51.796;10.956;2024-03-17T05:39:10;4.20;94.50
67901;DHT22;54700;51.796;10.956;2024-03-17T05:41:37;4.20;94.30
67901;DHT22;54700;51.796;10.956;2024-03-17T05:44:04;4.20;94.10
67901;DHT22;54700;51.796;10.956;2024-03-17T05:46:30;4.30;93.90
67901;DHT22;54700;51.796;10.956;2024-03-17T05:48:58;4.30;93.80
67901;DHT22;54700;51.796;10.956;2024-03-17T05:51:25;4.40;93.80
67901;DHT22;54700;51.796;10.956;2024-03-17T05:53:53;4.40;93.40
67901;DHT22;54700;51.796;10.956;2024-03-17T05:56:21;4.50;93.10
67901;DHT22;54700;51.796;10.956;2024-03-17T05:58:48;4.50;92.60
67901;DHT22;54700;51.796;10.956;2024-03-17T06:01:15;4.50;92.30
67901;DHT22;54700;51.796;10.956;2024-03-17T06:03:42;4.60;92.10
67901;DHT22;54700;51.796;10.956;2024-03-17T06:06:10;4.60;91.70
67901;DHT22;54700;51.796;10.956;2024-03-17T06:08:37;4.60;91.10
67901;DHT22;54700;51.796;10.956;2024-03-17T06:11:04;4.60;91.00
67901;DHT22;54700;51.796;10.956;2024-03-17T06:13:32;4.60;91.20
67901;DHT22;54700;51.796;10.956;2024-03-17T06:15:59;4.60;91.40
67901;DHT22;54700;51.796;10.956;2024-03-17T06:18:28;4.60;91.50
67901;DHT22;54700;51.796;10.956;2024-03-17T06:20:55;4.60;91.70
67901;DHT22;54700;51.796;10.956;2024-03-17T06:23:25;4.60;91.80
67901;DHT22;54700;51.796;10.956;2024-03-17T06:25:53;4.60;91.90
67901;DHT22;54700;51.796;10.956;2024-03-17T06:28:20;4.60;92.20
67901;DHT22;54700;51.796;10.956;2024-03-17T06:30:54;4.60;92.40
67901;DHT22;54700;51.796;10.956;2024-03-17T06:33:21;4.70;92.30
67901;DHT22;54700;51.796;10.956;2024-03-17T06:35:48;4.80;91.80
67901;DHT22;54700;51.796;10.956;2024-03-17T06:38:15;4.90;90.50
67901;DHT22;54700;51.796;10.956;2024-03-17T06:40:47;4.90;90.20
67901;DHT22;54700;51.796;10.956;2024-03-17T06:43:14;5.00;89.60
67901;DHT22;54700;51.796;10.956;2024-03-17T06:45:41;5.10;88.30
67901;DHT22;54700;51.796;10.956;2024-03-17T06:48:08;5.20;88.00
67901;DHT22;54700;51.796;10.956;2024-03-17T06:50:35;5.30;89.10
67901;DHT22;54700;51.796;10.956;2024-03-17T06:53:04;5.30;90.20
67901;DHT22;54700;51.796;10.956;2024-03-17T06:55:31;5.30;90.60
67901;DHT22;54700;51.796;10.956;2024-03-17T06:57:59;5.20;90.90
67901;DHT22;54700;51.796;10.956;2024-03-17T07:00:26;5.30;90.80
67901;DHT22;54700;51.796;10.956;2024-03-17T07:02:53;5.20;90.50
67901;DHT22;54700;51.796;10.956;2024-03-17T07:05:20;5.30;90.90
67901;DHT22;54700;51.796;10.956;2024-03-17T07:07:46;5.30;91.20
67901;DHT22;54700;51.796;10.956;2024-03-17T07:10:13;5.40;91.10
67901;DHT22;54700;51.796;10.956;2024-03-17T07:12:41;5.50;91.10
67901;DHT22;54700;51.796;10.956;2024-03-17T07:15:09;5.50;91.00
67901;DHT22;54700;51.796;10.956;2024-03-17T07:17:37;5.60;90.80
67901;DHT22;54700;51.796;10.956;2024-03-17T07:20:04;5.70;90.60
67901;DHT22;54700;51.796;10.956;2024-03-17T07:22:34;5.80;90.50
67901;DHT22;54700;51.796;10.956;2024-03-17T07:25:01;5.90;90.20
67901;DHT22;54700;51.796;10.956;2024-03-17T07:27:28;5.90;90.30
67901;DHT22;54700;51.796;10.956;2024-03-17T07:29:55;5.90;90.10
67901;DHT22;54700;51.796;10.956;2024-03-17T07:32:23;6.00;89.50
67901;DHT22;54700;51.796;10.956;2024-03-17T07:34:50;6.00;90.00
67901;DHT22;54700;51.796;10.956;2024-03-17T07:37:16;6.10;89.70
67901;DHT22;54700;51.796;10.956;2024-03-17T07:39:43;6.10;89.10
67901;DHT22;54700;51.796;10.956;2024-03-17T07:42:13;6.20;88.80
67901;DHT22;54700;51.796;10.956;2024-03-17T07:44:42;6.30;88.00
67901;DHT22;54700;51.796;10.956;2024-03-17T07:47:10;6.40;86.60
67901;DHT22;54700;51.796;10.956;2024-03-17T07:49:38;6.50;85.80
67901;DHT22;54700;51.796;10.956;2024-03-17T07:52:05;6.60;85.20
67901;DHT22;54700;51.796;10.956;2024-03-17T07:54:32;6.60;82.30
67901;DHT22;54700;51.796;10.956;2024-03-17T07:57:00;6.70;82.20
67901;DHT22;54700;51.796;10.956;2024-03-17T07:59:27;6.80;81.80
67901;DHT22;54700;51.796;10.956;2024-03-17T08:01:57;6.80;80.30
67901;DHT22;54700;51.796;10.956;2024-03-17T08:04:24;6.80;80.30
67901;DHT22;54700;51.796;10.956;2024-03-17T08:06:53;6.90;79.40
67901;DHT22;54700;51.796;10.956;2024-03-17T08:09:20;6.90;79.90
67901;DHT22;54700;51.796;10.956;2024-03-17T08:11:47;7.00;80.10
67901;DHT22;54700;51.796;10.956;2024-03-17T08:14:15;7.10;80.10
67901;DHT22;54700;51.796;10.956;2024-03-17T08:16:42;7.30;80.10
67901;DHT22;54700;51.796;10.956;2024-03-17T08:19:09;7.40;79.10
67901;DHT22;54700;51.796;10.956;2024-03-17T08:21:38;7.40;77.60
67901;DHT22;54700;51.796;10.956;2024-03-17T08:24:07;7.50;76.90
67901;DHT22;54700;51.796;10.956;2024-03-17T08:26:33;7.60;77.30
67901;DHT22;54700;51.796;10.956;2024-03-17T08:29:00;7.70;75.40
67901;DHT22;54700;51.796;10.956;2024-03-17T08:31:27;7.70;73.10
67901;DHT22;54700;51.796;10.956;2024-03-17T08:33:54;7.70;72.00
67901;DHT22;54700;51.796;10.956;2024-03-17T08:36:23;7.70;71.80
67901;DHT22;54700;51.796;10.956;2024-03-17T08:38:51;7.70;73.20
67901;DHT22;54700;51.796;10.956;2024-03-17T08:41:19;7.80;73.20
67901;DHT22;54700;51.796;10.956;2024-03-17T08:43:46;7.90;72.10
67901;DHT22;54700;51.796;10.956;2024-03-17T08:46:13;8.00;72.20
67901;DHT22;54700;51.796;10.956;2024-03-17T08:48:43;8.20;71.50
67901;DHT22;54700;51.796;10.956;2024-03-17T08:51:10;8.30;70.90
67901;DHT22;54700;51.796;10.956;2024-03-17T08:53:37;8.50;69.90
67901;DHT22;54700;51.796;10.956;2024-03-17T08:56:05;8.50;69.50
67901;DHT22;54700;51.796;10.956;2024-03-17T08:58:34;8.50;68.00
67901;DHT22;54700;51.796;10.956;2024-03-17T09:01:04;8.60;69.10
67901;DHT22;54700;51.796;10.956;2024-03-17T09:03:32;8.60;68.90
67901;DHT22;54700;51.796;10.956;2024-03-17T09:05:59;8.60;68.70
67901;DHT22;54700;51.796;10.956;2024-03-17T09:08:26;8.50;67.70
67901;DHT22;54700;51.796;10.956;2024-03-17T09:10:53;8.50;67.10
67901;DHT22;54700;51.796;10.956;2024-03-17T09:13:21;8.50;67.40
67901;DHT22;54700;51.796;10.956;2024-03-17T09:15:52;8.40;66.60
67901;DHT22;54700;51.796;10.956;2024-03-17T09:18:19;8.40;66.60
67901;DHT22;54700;51.796;10.956;2024-03-17T09:20:54;8.40;66.20
67901;DHT22;54700;51.796;10.956;2024-03-17T09:23:22;8.40;66.90
67901;DHT22;54700;51.796;10.956;2024-03-17T09:25:54;8.40;66.70
67901;DHT22;54700;51.796;10.956;2024-03-17T09:28:24;8.50;66.50
67901;DHT22;54700;51.796;10.956;2024-03-17T09:30:56;8.60;66.30
67901;DHT22;54700;51.796;10.956;2024-03-17T09:33:23;8.60;66.00
67901;DHT22;54700;51.796;10.956;2024-03-17T09:35:55;8.60;66.20
67901;DHT22;54700;51.796;10.956;2024-03-17T09:38:23;8.70;65.40
67901;DHT22;54700;51.796;10.956;2024-03-17T09:40:50;8.80;65.00
67901;DHT22;54700;51.796;10.956;2024-03-17T09:43:18;8.90;64.70
67901;DHT22;54700;51.796;10.956;2024-03-17T09:45:46;8.90;63.40
67901;DHT22;54700;51.796;10.956;2024-03-17T09:48:15;8.90;62.90
67901;DHT22;54700;51.796;10.956;2024-03-17T09:50:49;8.90;63.80
67901;DHT22;54700;51.796;10.956;2024-03-17T09:53:20;9.00;64.30
67901;DHT22;54700;51.796;10.956;2024-03-17T09:55:50;9.10;63.80
67901;DHT22;54700;51.796;10.956;2024-03-17T09:58:17;9.10;62.50
67901;DHT22;54700;51.796;10.956;2024-03-17T10:00:44;9.00;61.60
67901;DHT22;54700;51.796;10.956;2024-03-17T10:03:12;8.80;62.80
67901;DHT22;54700;51.796;10.956;2024-03-17T10:05:40;8.80;63.40
67901;DHT22;54700;51.796;10.956;2024-03-17T10:08:07;8.80;63.30
67901;DHT22;54700;51.796;10.956;2024-03-17T10:10:52;8.70;62.90
67901;DHT22;54700;51.796;10.956;2024-03-17T10:13:19;8.70;63.50
67901;DHT22;54700;51.796;10.956;2024-03-17T10:15:47;8.70;64.10
67901;DHT22;54700;51.796;10.956;2024-03-17T10:18:19;8.70;63.80
67901;DHT22;54700;51.796;10.956;2024-03-17T10:20:49;8.80;63.40
67901;DHT22;54700;51.796;10.956;2024-03-17T10:23:20;8.70;62.80
67901;DHT22;54700;51.796;10.956;2024-03-17T10:25:47;8.70;63.00
67901;DHT22;54700;51.796;10.956;2024-03-17T10:28:14;8.60;62.00
67901;DHT22;54700;51.796;10.956;2024-03-17T10:30:56;8.40;62.40
67901;DHT22;54700;51.796;10.956;2024-03-17T10:33:24;8.40;62.90
67901;DHT22;54700;51.796;10.956;2024-03-17T10:35:59;8.30;63.30
67901;DHT22;54700;51.796;10.956;2024-03-17T10:38:26;8.30;63.30
67901;DHT22;54700;51.796;10.956;2024-03-17T10:40:53;8.30;64.10
67901;DHT22;54700;51.796;10.956;2024-03-17T10:43:20;8.20;63.50
67901;DHT22;54700;51.796;10.956;2024-03-17T10:45:53;8.30;63.90
67901;DHT22;54700;51.796;10.956;2024-03-17T10:48:21;8.30;63.10
67901;DHT22;54700;51.796;10.956;2024-03-17T10:50:58;8.20;62.40
67901;DHT22;54700;51.796;10.956;2024-03-17T10:53:26;8.20;63.10
67901;DHT22;54700;51.796;10.956;2024-03-17T10:55:56;8.20;62.80
67901;DHT22;54700;51.796;10.956;2024-03-17T10:58:32;8.30;62.60
67901;DHT22;54700;51.796;10.956;2024-03-17T11:01:01;8.40;63.10
67901;DHT22;54700;51.796;10.956;2024-03-17T11:03:31;8.50;62.40
67901;DHT22;54700;51.796;10.956;2024-03-17T11:05:59;8.60;62.80
67901;DHT22;54700;51.796;10.956;2024-03-17T11:08:29;8.70;63.20
67901;DHT22;54700;51.796;10.956;2024-03-17T11:10:58;8.80;63.10
67901;DHT22;54700;51.796;10.956;2024-03-17T11:13:26;8.80;61.70
67901;DHT22;54700;51.796;10.956;2024-03-17T11:15:53;8.80;62.70
67901;DHT22;54700;51.796;10.956;2024-03-17T11:21:07;8.70;63.00
67901;DHT22;54700;51.796;10.956;2024-03-17T11:23:56;8.80;63.30
67901;DHT22;54700;51.796;10.956;2024-03-17T11:26:28;8.90;62.90
67901;DHT22;54700;51.796;10.956;2024-03-17T11:28:56;8.90;62.50
67901;DHT22;54700;51.796;10.956;2024-03-17T11:31:36;8.90;62.60
67901;DHT22;54700;51.796;10.956;2024-03-17T11:34:06;8.90;62.40
67901;DHT22;54700;51.796;10.956;2024-03-17T11:36:53;9.00;61.90
67901;DHT22;54700;51.796;10.956;2024-03-17T11:39:20;8.90;61.90
67901;DHT22;54700;51.796;10.956;2024-03-17T11:41:48;8.90;61.80
67901;DHT22;54700;51.796;10.956;2024-03-17T11:44:23;8.90;60.50
67901;DHT22;54700;51.796;10.956;2024-03-17T11:46:51;8.90;60.10
67901;DHT22;54700;51.796;10.956;2024-03-17T11:49:19;8.90;61.20
67901;DHT22;54700;51.796;10.956;2024-03-17T11:51:48;9.00;61.50
67901;DHT22;54700;51.796;10.956;2024-03-17T11:54:17;9.10;59.90
67901;DHT22;54700;51.796;10.956;2024-03-17T11:56:45;9.30;58.70
67901;DHT22;54700;51.796;10.956;2024-03-17T11:59:12;9.50;56.70
67901;DHT22;54700;51.796;10.956;2024-03-17T12:01:39;9.60;56.40
67901;DHT22;54700;51.796;10.956;2024-03-17T12:04:07;9.70;56.70
67901;DHT22;54700;51.796;10.956;2024-03-17T12:06:33;9.80;56.10
67901;DHT22;54700;51.796;10.956;2024-03-17T12:09:10;9.70;55.80
67901;DHT22;54700;51.796;10.956;2024-03-17T12:11:43;9.80;56.50
67901;DHT22;54700;51.796;10.956;2024-03-17T12:14:12;9.80;56.20
67901;DHT22;54700;51.796;10.956;2024-03-17T12:16:46;9.80;58.00
67901;DHT22;54700;51.796;10.956;2024-03-17T12:19:14;9.90;58.40
67901;DHT22;54700;51.796;10.956;2024-03-17T12:21:43;10.00;55.80
67901;DHT22;54700;51.796;10.956;2024-03-17T12:24:13;10.00;56.30
67901;DHT22;54700;51.796;10.956;2024-03-17T12:26:40;9.90;55.20
67901;DHT22;54700;51.796;10.956;2024-03-17T12:29:22;9.90;56.70
67901;DHT22;54700;51.796;10.956;2024-03-17T12:31:55;9.90;57.90
67901;DHT22;54700;51.796;10.956;2024-03-17T12:34:24;9.70;58.30
67901;DHT22;54700;51.796;10.956;2024-03-17T12:36:52;9.70;59.30
67901;DHT22;54700;51.796;10.956;2024-03-17T12:39:20;9.60;60.20
67901;DHT22;54700;51.796;10.956;2024-03-17T12:42:03;9.60;59.90
67901;DHT22;54700;51.796;10.956;2024-03-17T12:44:33;9.50;59.80
67901;DHT22;54700;51.796;10.956;2024-03-17T12:47:04;9.40;59.80
67901;DHT22;54700;51.796;10.956;2024-03-17T12:49:31;9.30;60.60
67901;DHT22;54700;51.796;10.956;2024-03-17T12:51:59;9.30;60.00
67901;DHT22;54700;51.796;10.956;2024-03-17T12:54:26;9.30;59.90
67901;DHT22;54700;51.796;10.956;2024-03-17T12:57:03;9.30;59.30
67901;DHT22;54700;51.796;10.956;2024-03-17T12:59:49;9.40;58.60
67901;DHT22;54700;51.796;10.956;2024-03-17T13:02:34;9.50;56.70
67901;DHT22;54700;51.796;10.956;2024-03-17T13:05:07;9.60;57.10
67901;DHT22;54700;51.796;10.956;2024-03-17T13:07:41;9.60;58.10
67901;DHT22;54700;51.796;10.956;2024-03-17T13:10:08;9.60;58.50
67901;DHT22;54700;51.796;10.956;2024-03-17T13:12:36;9.70;58.00
67901;DHT22;54700;51.796;10.956;2024-03-17T13:15:04;9.70;57.30
67901;DHT22;54700;51.796;10.956;2024-03-17T13:17:32;9.70;57.00
67901;DHT22;54700;51.796;10.956;2024-03-17T13:20:00;9.70;57.20
67901;DHT22;54700;51.796;10.956;2024-03-17T13:22:27;9.60;58.00
67901;DHT22;54700;51.796;10.956;2024-03-17T13:24:54;9.60;58.10
67901;DHT22;54700;51.796;10.956;2024-03-17T13:27:21;9.50;58.20
67901;DHT22;54700;51.796;10.956;2024-03-17T13:29:48;9.60;58.80
67901;DHT22;54700;51.796;10.956;2024-03-17T13:32:16;9.70;58.90
67901;DHT22;54700;51.796;10.956;2024-03-17T13:34:43;9.80;58.40
67901;DHT22;54700;51.796;10.956;2024-03-17T13:37:11;9.90;58.50
67901;DHT22;54700;51.796;10.956;2024-03-17T13:39:38;10.00;57.00
67901;DHT22;54700;51.796;10.956;2024-03-17T13:42:05;10.00;56.30
67901;DHT22;54700;51.796;10.956;2024-03-17T13:44:33;10.10;57.10
67901;DHT22;54700;51.796;10.956;2024-03-17T13:47:00;10.10;56.60
67901;DHT22;54700;51.796;10.956;2024-03-17T13:49:30;10.10;57.30
67901;DHT22;54700;51.796;10.956;2024-03-17T13:51:57;10.10;57.50
67901;DHT22;54700;51.796;10.956;2024-03-17T13:54:23;10.10;57.50
67901;DHT22;54700;51.796;10.956;2024-03-17T13:56:50;10.00;57.60
67901;DHT22;54700;51.796;10.956;2024-03-17T13:59:17;10.00;58.30
67901;DHT22;54700;51.796;10.956;2024-03-17T14:01:44;10.00;57.90
67901;DHT22;54700;51.796;10.956;2024-03-17T14:04:12;9.90;58.60
67901;DHT22;54700;51.796;10.956;2024-03-17T14:06:43;9.90;58.30
67901;DHT22;54700;51.796;10.956;2024-03-17T14:09:11;9.90;59.10
67901;DHT22;54700;51.796;10.956;2024-03-17T14:11:38;10.00;57.60
67901;DHT22;54700;51.796;10.956;2024-03-17T14:14:05;10.00;58.50
67901;DHT22;54700;51.796;10.956;2024-03-17T14:16:33;10.00;58.30
67901;DHT22;54700;51.796;10.956;2024-03-17T14:19:00;10.10;58.90
67901;DHT22;54700;51.796;10.956;2024-03-17T14:21:27;10.10;59.00
67901;DHT22;54700;51.796;10.956;2024-03-17T14:23:56;10.10;59.20
67901;DHT22;54700;51.796;10.956;2024-03-17T14:26:22;10.10;58.90
67901;DHT22;54700;51.796;10.956;2024-03-17T14:28:49;10.10;58.60
67901;DHT22;54700;51.796;10.956;2024-03-17T14:31:17;10.10;58.50
67901;DHT22;54700;51.796;10.956;2024-03-17T14:33:44;10.10;58.70
67901;DHT22;54700;51.796;10.956;2024-03-17T14:36:10;10.10;58.50
67901;DHT22;54700;51.796;10.956;2024-03-17T14:38:37;10.10;59.10
67901;DHT22;54700;51.796;10.956;2024-03-17T14:41:05;10.10;59.70
67901;DHT22;54700;51.796;10.956;2024-03-17T14:43:32;10.10;59.60
67901;DHT22;54700;51.796;10.956;2024-03-17T14:46:03;10.10;58.80
67901;DHT22;54700;51.796;10.956;2024-03-17T14:48:33;10.00;59.00
67901;DHT22;54700;51.796;10.956;2024-03-17T14:51:00;9.90;59.60
67901;DHT22;54700;51.796;10.956;2024-03-17T14:53:27;9.80;58.60
67901;DHT22;54700;51.796;10.956;2024-03-17T14:55:54;9.80;59.10
67901;DHT22;54700;51.796;10.956;2024-03-17T14:58:22;9.80;59.30
67901;DHT22;54700;51.796;10.956;2024-03-17T15:00:49;9.80;59.10
67901;DHT22;54700;51.796;10.956;2024-03-17T15:03:16;9.70;59.00
67901;DHT22;54700;51.796;10.956;2024-03-17T15:05:43;9.70;58.50
67901;DHT22;54700;51.796;10.956;2024-03-17T15:08:10;9.70;59.00
67901;DHT22;54700;51.796;10.956;2024-03-17T15:10:37;9.70;59.80
67901;DHT22;54700;51.796;10.956;2024-03-17T15:13:04;9.70;60.10
67901;DHT22;54700;51.796;10.956;2024-03-17T15:15:32;9.60;59.80
67901;DHT22;54700;51.796;10.956;2024-03-17T15:17:58;9.60;59.70
67901;DHT22;54700;51.796;10.956;2024-03-17T15:20:25;9.60;60.30
67901;DHT22;54700;51.796;10.956;2024-03-17T15:22:52;9.50;60.00
67901;DHT22;54700;51.796;10.956;2024-03-17T15:25:19;9.50;60.10
67901;DHT22;54700;51.796;10.956;2024-03-17T15:27:49;9.50;60.60
67901;DHT22;54700;51.796;10.956;2024-03-17T15:30:16;9.50;61.00
67901;DHT22;54700;51.796;10.956;2024-03-17T15:32:46;9.50;61.20
67901;DHT22;54700;51.796;10.956;2024-03-17T15:35:13;9.50;61.00
67901;DHT22;54700;51.796;10.956;2024-03-17T15:37:40;9.50;60.50
67901;DHT22;54700;51.796;10.956;2024-03-17T15:40:08;9.40;61.20